createdAt,value
2023-02-26T00:02:10.734Z,101810.84
2023-02-26T00:04:39.296Z,101814.47
2023-02-26T00:07:07.667Z,101811.88
2023-02-26T00:09:37.644Z,101790.50
2023-02-26T00:12:06.875Z,101826.88
2023-02-26T00:14:35.743Z,101807.41
2023-02-26T00:17:38.519Z,101802.78
2023-02-26T00:20:11.755Z,101811.00
2023-02-26T00:22:41.300Z,101818.97
2023-02-26T00:25:12.245Z,101809.09
2023-02-26T00:27:41.426Z,101834.91
2023-02-26T00:30:12.057Z,101831.28
2023-02-26T00:32:42.555Z,101826.03
2023-02-26T00:35:16.729Z,101754.78
2023-02-26T00:38:02.828Z,101846.94
2023-02-26T00:40:41.457Z,101853.16
2023-02-26T00:43:15.982Z,101854.97
2023-02-26T00:45:50.729Z,101851.13
2023-02-26T00:48:39.689Z,101853.00
2023-02-26T00:51:16.199Z,101857.47
2023-02-26T00:53:50.373Z,101860.72
2023-02-26T00:56:20.048Z,101866.81
2023-02-26T00:58:48.408Z,101870.22
2023-02-26T01:01:16.865Z,101877.19
2023-02-26T01:03:45.589Z,101859.50
2023-02-26T01:06:17.015Z,101864.69
2023-02-26T01:08:52.905Z,101869.22
2023-02-26T01:11:23.558Z,101876.00
2023-02-26T01:13:52.220Z,101882.88
2023-02-26T01:16:27.555Z,101878.28
2023-02-26T01:19:04.510Z,101885.94
2023-02-26T01:21:39.239Z,101883.41
2023-02-26T01:24:14.187Z,101900.84
2023-02-26T01:26:45.034Z,101889.19
2023-02-26T01:29:14.000Z,101898.91
2023-02-26T01:31:51.388Z,101889.91
2023-02-26T01:34:26.322Z,101904.06
2023-02-26T01:37:03.711Z,101912.09
2023-02-26T01:39:39.684Z,101913.88
2023-02-26T01:42:17.922Z,101916.25
2023-02-26T01:45:00.532Z,101921.47
2023-02-26T01:47:37.448Z,101908.13
2023-02-26T01:50:15.214Z,101905.50
2023-02-26T01:53:20.199Z,101915.97
2023-02-26T01:55:54.171Z,101901.53
2023-02-26T01:58:27.125Z,101899.69
2023-02-26T02:00:55.500Z,101922.59
2023-02-26T02:03:25.499Z,101923.38
2023-02-26T02:05:58.306Z,101921.44
2023-02-26T02:08:26.996Z,101936.66
2023-02-26T02:10:55.633Z,101939.19
2023-02-26T02:13:42.797Z,101936.91
2023-02-26T02:16:22.516Z,101943.81
2023-02-26T02:19:01.579Z,101944.59
2023-02-26T02:21:52.561Z,101948.94
2023-02-26T02:24:33.722Z,101951.69
2023-02-26T02:27:09.787Z,101987.16
2023-02-26T02:30:26.496Z,101933.50
2023-02-26T02:33:01.642Z,101953.00
2023-02-26T02:35:36.922Z,101951.38
2023-02-26T02:38:10.915Z,101964.34
2023-02-26T02:40:44.896Z,101968.81
2023-02-26T02:43:17.827Z,101973.47
2023-02-26T02:45:51.531Z,101815.63
2023-02-26T02:48:28.901Z,101977.69
2023-02-26T02:51:02.016Z,101985.34
2023-02-26T02:53:37.743Z,101977.31
2023-02-26T02:56:11.997Z,101991.59
2023-02-26T02:58:46.771Z,101989.66
2023-02-26T03:01:20.430Z,101992.44
2023-02-26T03:03:58.073Z,101998.00
2023-02-26T03:06:26.442Z,101998.69
2023-02-26T03:08:55.424Z,102000.28
2023-02-26T03:11:24.056Z,101983.28
2023-02-26T03:13:54.421Z,101998.28
2023-02-26T03:17:07.762Z,101997.25
2023-02-26T03:19:50.848Z,101997.13
2023-02-26T03:22:35.760Z,101999.88
2023-02-26T03:25:11.505Z,101999.72
2023-02-26T03:27:48.659Z,101972.88
2023-02-26T03:30:23.131Z,101990.69
2023-02-26T03:33:00.450Z,102004.84
2023-02-26T03:35:37.538Z,102007.53
2023-02-26T03:38:13.085Z,102011.47
2023-02-26T03:40:47.365Z,102009.63
2023-02-26T03:43:21.852Z,102027.66
2023-02-26T03:45:55.125Z,102016.94
2023-02-26T03:48:28.700Z,102014.16
2023-02-26T03:51:05.301Z,102022.97
2023-02-26T03:53:42.150Z,102029.34
2023-02-26T03:56:23.941Z,102014.72
2023-02-26T03:58:55.402Z,102034.06
2023-02-26T04:01:48.440Z,102035.84
2023-02-26T04:04:25.204Z,102042.06
2023-02-26T04:06:56.287Z,102044.63
2023-02-26T04:09:24.874Z,102040.16
2023-02-26T04:11:55.251Z,101959.59
2023-02-26T04:14:23.722Z,102040.75
2023-02-26T04:16:55.037Z,102038.09
2023-02-26T04:19:23.911Z,102055.00
2023-02-26T04:21:54.324Z,102064.00
2023-02-26T04:24:22.828Z,102065.66
2023-02-26T04:26:51.284Z,102068.59
2023-02-26T04:29:19.665Z,102057.16
2023-02-26T04:31:48.412Z,102064.84
2023-02-26T04:34:16.747Z,102069.03
2023-02-26T04:36:45.226Z,102069.88
2023-02-26T04:39:15.320Z,102073.34
2023-02-26T04:41:43.772Z,102071.41
2023-02-26T04:44:12.357Z,102072.16
2023-02-26T04:46:43.239Z,102076.44
2023-02-26T04:49:11.730Z,102073.88
2023-02-26T04:51:43.996Z,102071.50
2023-02-26T04:54:16.059Z,102079.16
2023-02-26T04:56:44.614Z,101938.25
2023-02-26T04:59:13.020Z,102081.91
2023-02-26T05:01:42.093Z,102085.84
2023-02-26T05:04:10.748Z,102086.53
2023-02-26T05:06:40.541Z,102087.28
2023-02-26T05:09:09.203Z,102090.19
2023-02-26T05:11:39.456Z,102100.69
2023-02-26T05:14:08.918Z,102097.78
2023-02-26T05:16:37.332Z,102101.09
2023-02-26T05:19:05.727Z,102093.50
2023-02-26T05:21:34.071Z,102103.03
2023-02-26T05:24:02.441Z,102103.13
2023-02-26T05:26:32.203Z,102094.59
2023-02-26T05:29:02.344Z,102104.72
2023-02-26T05:31:30.963Z,102103.50
2023-02-26T05:33:59.584Z,102115.47
2023-02-26T05:36:28.057Z,102121.41
2023-02-26T05:38:56.325Z,102111.44
2023-02-26T05:41:24.935Z,102124.88
2023-02-26T05:43:53.351Z,102125.72
2023-02-26T05:46:23.203Z,102129.19
2023-02-26T05:48:51.672Z,102131.06
2023-02-26T05:51:20.108Z,102139.22
2023-02-26T05:53:48.582Z,102138.16
2023-02-26T05:56:17.906Z,102132.81
2023-02-26T05:58:46.663Z,102142.53
2023-02-26T06:01:15.253Z,102140.59
2023-02-26T06:03:45.094Z,102144.53
2023-02-26T06:06:14.250Z,102145.44
2023-02-26T06:08:42.787Z,102147.16
2023-02-26T06:11:11.209Z,102138.97
2023-02-26T06:13:39.659Z,102145.13
2023-02-26T06:16:08.703Z,102162.75
2023-02-26T06:18:37.128Z,102159.22
2023-02-26T06:21:07.356Z,102175.13
2023-02-26T06:23:35.741Z,102180.03
2023-02-26T06:26:04.836Z,102176.47
2023-02-26T06:28:33.397Z,102193.00
2023-02-26T06:31:01.881Z,102192.16
2023-02-26T06:33:30.278Z,102205.31
2023-02-26T06:36:00.246Z,102211.13
2023-02-26T06:38:30.325Z,102206.38
2023-02-26T06:40:59.124Z,102207.75
2023-02-26T06:43:27.483Z,102212.44
2023-02-26T06:45:59.347Z,102227.34
2023-02-26T06:48:28.082Z,102224.81
2023-02-26T06:50:56.612Z,102223.06
2023-02-26T06:53:25.069Z,102235.09
2023-02-26T06:55:55.211Z,102239.28
2023-02-26T06:58:24.126Z,102225.44
2023-02-26T07:00:52.608Z,102249.34
2023-02-26T07:03:22.053Z,102249.13
2023-02-26T07:05:50.395Z,102256.75
2023-02-26T07:08:18.658Z,102261.75
2023-02-26T07:10:49.431Z,102265.59
2023-02-26T07:13:19.748Z,102270.31
2023-02-26T07:15:48.191Z,102250.19
2023-02-26T07:18:16.620Z,102282.03
2023-02-26T07:20:45.692Z,102282.88
2023-02-26T07:23:14.141Z,102296.63
2023-02-26T07:25:42.595Z,102291.88
2023-02-26T07:28:10.949Z,102299.72
2023-02-26T07:30:42.370Z,102309.31
2023-02-26T07:33:13.275Z,102308.28
2023-02-26T07:35:42.432Z,102309.34
2023-02-26T07:38:10.781Z,102318.69
2023-02-26T07:40:39.033Z,102320.78
2023-02-26T07:43:07.451Z,102322.19
2023-02-26T07:45:35.729Z,102330.94
2023-02-26T07:48:05.914Z,102333.94
2023-02-26T07:50:34.330Z,102340.69
2023-02-26T07:53:02.694Z,102337.59
2023-02-26T07:55:31.060Z,102332.81
2023-02-26T07:57:59.565Z,102337.47
2023-02-26T08:00:27.982Z,102324.25
2023-02-26T08:02:56.313Z,102341.03
2023-02-26T08:05:26.893Z,102335.44
2023-02-26T08:07:56.677Z,102349.09
2023-02-26T08:10:25.408Z,102350.88
2023-02-26T08:12:53.809Z,102246.75
2023-02-26T08:15:22.517Z,102353.69
2023-02-26T08:17:53.587Z,102360.66
2023-02-26T08:20:22.373Z,102362.50
2023-02-26T08:22:53.165Z,102369.38
2023-02-26T08:25:21.676Z,102365.16
2023-02-26T08:27:50.079Z,102372.66
2023-02-26T08:30:18.730Z,102368.50
2023-02-26T08:32:47.019Z,102374.78
2023-02-26T08:35:15.643Z,102375.00
2023-02-26T08:37:44.060Z,102388.94
2023-02-26T08:40:15.361Z,102373.88
2023-02-26T08:42:43.747Z,102379.75
2023-02-26T08:45:12.767Z,102363.63
2023-02-26T08:47:55.508Z,102403.19
2023-02-26T08:50:25.425Z,102401.63
2023-02-26T08:52:53.702Z,102410.34
2023-02-26T08:55:24.058Z,102388.78
2023-02-26T08:57:52.550Z,102406.84
2023-02-26T09:00:22.136Z,102414.47
2023-02-26T09:02:50.653Z,102414.22
2023-02-26T09:05:19.279Z,102429.53
2023-02-26T09:07:47.794Z,102429.00
2023-02-26T09:10:17.615Z,102430.47
2023-02-26T09:12:47.862Z,102428.88
2023-02-26T09:15:16.455Z,102365.88
2023-02-26T09:17:44.878Z,102437.28
2023-02-26T09:20:14.780Z,102439.53
2023-02-26T09:22:43.327Z,102445.22
2023-02-26T09:25:12.883Z,102440.47
2023-02-26T09:27:41.425Z,102438.50
2023-02-26T09:30:13.175Z,102433.28
2023-02-26T09:32:41.574Z,102447.50
2023-02-26T09:35:11.550Z,102443.00
2023-02-26T09:37:40.466Z,102458.56
2023-02-26T09:40:13.639Z,102456.38
2023-02-26T09:43:02.207Z,102460.13
2023-02-26T09:45:36.597Z,102475.44
2023-02-26T09:48:07.538Z,102428.28
2023-02-26T09:50:46.955Z,102418.28
2023-02-26T09:53:22.051Z,102458.66
2023-02-26T09:55:53.158Z,102462.94
2023-02-26T09:58:28.403Z,102458.44
2023-02-26T10:01:09.034Z,102457.91
2023-02-26T10:03:52.678Z,102471.25
2023-02-26T10:06:27.387Z,102456.06
2023-02-26T10:09:22.576Z,102498.22
2023-02-26T10:11:57.671Z,102479.13
2023-02-26T10:14:31.521Z,102485.28
2023-02-26T10:17:04.846Z,102478.72
2023-02-26T10:19:38.528Z,102503.22
2023-02-26T10:22:17.697Z,102499.25
2023-02-26T10:24:50.936Z,102488.75
2023-02-26T10:27:23.842Z,102410.44
2023-02-26T10:29:59.909Z,102513.41
2023-02-26T10:32:38.024Z,102518.63
2023-02-26T10:35:11.588Z,102476.38
2023-02-26T10:37:49.708Z,102509.72
2023-02-26T10:40:25.008Z,102530.09
2023-02-26T10:42:59.872Z,102524.19
2023-02-26T10:45:43.385Z,102503.69
2023-02-26T10:48:29.911Z,102527.13
2023-02-26T10:51:01.342Z,102528.84
2023-02-26T10:53:33.008Z,102442.31
2023-02-26T10:56:07.089Z,102530.34
2023-02-26T10:58:35.492Z,102512.94
2023-02-26T11:01:04.181Z,102526.00
2023-02-26T11:03:37.742Z,102541.72
2023-02-26T11:06:07.971Z,102540.44
2023-02-26T11:08:41.959Z,102402.16
2023-02-26T11:11:10.465Z,102523.28
2023-02-26T11:13:40.630Z,102551.03
2023-02-26T11:16:15.986Z,102537.44
2023-02-26T11:18:52.038Z,102541.38
2023-02-26T11:21:28.216Z,102541.28
2023-02-26T11:24:03.428Z,102535.19
2023-02-26T11:26:37.492Z,102525.13
2023-02-26T11:29:06.934Z,102523.47
2023-02-26T11:31:35.335Z,102524.69
2023-02-26T11:34:10.721Z,102527.28
2023-02-26T11:36:44.189Z,102535.72
2023-02-26T11:39:18.921Z,102524.56
2023-02-26T11:41:50.384Z,102540.16
2023-02-26T11:44:23.238Z,102527.84
2023-02-26T11:46:54.745Z,102505.75
2023-02-26T11:49:28.720Z,102514.13
2023-02-26T11:52:19.751Z,102479.91
2023-02-26T11:55:01.806Z,102501.69
2023-02-26T11:57:34.006Z,102531.88
2023-02-26T12:00:19.228Z,102528.63
2023-02-26T12:02:48.526Z,102526.69
2023-02-26T12:05:19.620Z,102505.19
2023-02-26T12:07:48.834Z,102522.44
2023-02-26T12:10:23.971Z,102529.16
2023-02-26T12:13:04.385Z,102396.72
2023-02-26T12:15:39.144Z,102524.25
2023-02-26T12:18:43.994Z,102526.06
2023-02-26T12:21:33.378Z,102532.13
2023-02-26T12:24:49.587Z,102534.22
2023-02-26T12:27:30.207Z,102522.72
2023-02-26T12:30:26.893Z,102513.09
2023-02-26T12:33:12.750Z,102520.72
2023-02-26T12:35:55.992Z,102526.28
2023-02-26T12:38:38.539Z,102511.09
2023-02-26T12:41:40.519Z,102501.13
2023-02-26T12:44:27.546Z,102515.47
2023-02-26T12:47:25.143Z,102522.31
2023-02-26T12:50:32.812Z,102521.91
2023-02-26T12:53:33.220Z,102544.84
2023-02-26T12:56:21.951Z,102505.75
2023-02-26T12:59:06.176Z,102528.25
2023-02-26T13:02:00.567Z,102527.50
2023-02-26T13:05:04.938Z,102526.75
2023-02-26T13:08:13.745Z,102534.75
2023-02-26T13:10:58.738Z,102493.75
2023-02-26T13:13:52.782Z,102501.06
2023-02-26T13:16:45.998Z,102525.91
2023-02-26T13:19:32.801Z,102539.97
2023-02-26T13:22:06.365Z,102534.97
2023-02-26T13:24:41.212Z,102516.38
2023-02-26T13:27:13.655Z,102478.59
2023-02-26T13:29:49.135Z,102530.88
2023-02-26T13:32:22.804Z,102530.31
2023-02-26T13:34:58.706Z,102534.28
2023-02-26T13:37:31.198Z,102535.03
2023-02-26T13:40:25.822Z,102532.50
2023-02-26T13:43:07.654Z,102541.41
2023-02-26T13:45:53.813Z,102533.22
2023-02-26T13:48:38.143Z,102530.97
2023-02-26T13:51:14.074Z,102524.63
2023-02-26T13:53:54.777Z,102538.03
2023-02-26T13:56:51.356Z,102524.97
2023-02-26T13:59:38.578Z,102525.03
2023-02-26T14:02:53.375Z,102516.53
2023-02-26T14:06:01.331Z,102518.31
2023-02-26T14:08:52.329Z,102524.69
2023-02-26T14:11:59.752Z,102525.81
2023-02-26T14:14:38.525Z,102527.69
2023-02-26T14:17:41.808Z,102531.75
2023-02-26T14:20:26.266Z,102522.19
2023-02-26T14:23:25.701Z,102522.72
2023-02-26T14:25:55.039Z,102527.38
2023-02-26T14:28:43.650Z,102509.28
2023-02-26T14:31:23.238Z,102528.84
2023-02-26T14:34:01.888Z,102507.53
2023-02-26T14:36:37.904Z,102423.28
2023-02-26T14:39:11.728Z,102525.19
2023-02-26T14:41:42.340Z,102537.72
2023-02-26T14:44:17.204Z,102529.84
2023-02-26T14:46:48.096Z,102520.22
2023-02-26T14:49:21.057Z,102523.63
2023-02-26T14:52:19.841Z,102525.78
2023-02-26T14:55:36.668Z,102516.50
2023-02-26T14:58:33.915Z,102532.19
2023-02-26T15:01:32.614Z,102528.03
2023-02-26T15:04:24.356Z,102541.28
2023-02-26T15:07:09.893Z,102527.69
2023-02-26T15:09:51.624Z,102528.81
2023-02-26T15:12:36.195Z,102528.75
2023-02-26T15:15:22.582Z,102523.00
2023-02-26T15:18:07.532Z,102532.84
2023-02-26T15:20:50.851Z,102531.09
2023-02-26T15:23:37.437Z,102508.91
2023-02-26T15:26:07.427Z,102525.41
2023-02-26T15:28:39.534Z,102420.78
2023-02-26T15:31:13.550Z,102522.63
2023-02-26T15:33:42.509Z,102504.09
2023-02-26T15:36:15.885Z,102523.16
2023-02-26T15:38:47.426Z,102525.53
2023-02-26T15:41:16.983Z,102520.97
2023-02-26T15:43:51.319Z,102526.81
2023-02-26T15:46:26.514Z,102527.13
2023-02-26T15:48:59.405Z,102544.59
2023-02-26T15:51:29.560Z,102528.69
2023-02-26T15:54:02.945Z,102527.75
2023-02-26T15:56:36.664Z,102529.44
2023-02-26T15:59:08.872Z,102524.78
2023-02-26T16:01:37.803Z,102533.66
2023-02-26T16:04:12.712Z,102542.75
2023-02-26T16:06:48.141Z,102532.44
2023-02-26T16:09:20.276Z,102543.56
2023-02-26T16:11:50.904Z,102540.66
2023-02-26T16:14:22.254Z,102524.63
2023-02-26T16:16:53.635Z,102550.63
2023-02-26T16:19:30.617Z,102540.03
2023-02-26T16:22:03.814Z,102538.31
2023-02-26T16:24:33.200Z,102544.38
2023-02-26T16:27:08.831Z,102533.66
2023-02-26T16:29:38.224Z,102560.53
2023-02-26T16:32:11.115Z,102552.09
2023-02-26T16:34:44.587Z,102554.03
2023-02-26T16:37:26.995Z,102563.81
2023-02-26T16:40:00.044Z,102556.50
2023-02-26T16:42:46.032Z,102575.88
2023-02-26T16:45:24.291Z,102575.03
2023-02-26T16:47:56.855Z,102572.72
2023-02-26T16:50:28.578Z,102562.13
2023-02-26T16:53:05.638Z,102572.72
2023-02-26T16:55:39.159Z,102576.41
2023-02-26T16:58:12.925Z,102583.25
2023-02-26T17:00:41.406Z,102575.84
2023-02-26T17:03:16.484Z,102581.19
2023-02-26T17:06:00.439Z,102434.31
2023-02-26T17:08:35.322Z,102584.13
2023-02-26T17:11:08.225Z,102595.19
2023-02-26T17:13:38.356Z,102593.22
2023-02-26T17:16:10.123Z,102605.75
2023-02-26T17:18:38.853Z,102588.81
2023-02-26T17:21:09.473Z,102609.28
2023-02-26T17:23:40.375Z,102589.69
2023-02-26T17:26:09.124Z,102619.88
2023-02-26T17:28:43.201Z,102620.66
2023-02-26T17:31:12.825Z,102624.13
2023-02-26T17:33:43.998Z,102620.47
2023-02-26T17:36:18.710Z,102625.72
2023-02-26T17:38:50.075Z,102632.34
2023-02-26T17:41:20.000Z,102621.69
2023-02-26T17:43:48.398Z,102627.06
2023-02-26T17:46:16.992Z,102626.91
2023-02-26T17:48:45.414Z,102635.94
2023-02-26T17:51:16.097Z,102629.63
2023-02-26T17:53:46.738Z,102637.53
2023-02-26T17:56:25.809Z,102632.06
2023-02-26T17:58:55.251Z,102634.59
2023-02-26T18:01:26.765Z,102644.16
2023-02-26T18:03:55.738Z,102652.72
2023-02-26T18:06:25.836Z,102641.28
2023-02-26T18:08:54.269Z,102656.25
2023-02-26T18:11:26.255Z,102655.44
2023-02-26T18:13:55.541Z,102664.28
2023-02-26T18:16:29.031Z,102645.69
2023-02-26T18:18:57.385Z,102663.44
2023-02-26T18:21:27.225Z,102659.03
2023-02-26T18:23:57.561Z,102669.13
2023-02-26T18:26:30.595Z,102664.13
2023-02-26T18:28:59.252Z,102650.47
2023-02-26T18:31:34.664Z,102669.63
2023-02-26T18:34:04.227Z,102669.47
2023-02-26T18:36:38.098Z,102673.09
2023-02-26T18:39:09.667Z,102647.97
2023-02-26T18:41:39.578Z,102670.38
2023-02-26T18:44:07.991Z,102670.09
2023-02-26T18:46:40.338Z,102671.91
2023-02-26T18:49:16.693Z,102663.72
2023-02-26T18:51:45.090Z,102677.09
2023-02-26T18:54:13.468Z,102673.53
2023-02-26T18:56:43.151Z,102676.34
2023-02-26T18:59:11.478Z,102658.53
2023-02-26T19:01:39.892Z,102683.16
2023-02-26T19:04:08.451Z,102683.81
2023-02-26T19:06:37.206Z,102679.34
2023-02-26T19:09:05.894Z,102682.16
2023-02-26T19:11:34.308Z,102687.72
2023-02-26T19:14:05.312Z,102694.72
2023-02-26T19:16:38.043Z,102691.28
2023-02-26T19:19:10.609Z,102698.03
2023-02-26T19:21:40.434Z,102684.84
2023-02-26T19:24:11.296Z,102685.47
2023-02-26T19:26:40.084Z,102688.31
2023-02-26T19:29:12.598Z,102690.91
2023-02-26T19:31:41.043Z,102689.88
2023-02-26T19:34:09.572Z,102697.72
2023-02-26T19:36:38.120Z,102701.16
2023-02-26T19:39:07.373Z,102695.69
2023-02-26T19:41:36.039Z,102692.44
2023-02-26T19:44:04.639Z,102692.06
2023-02-26T19:46:34.377Z,102683.38
2023-02-26T19:49:03.029Z,102684.50
2023-02-26T19:51:31.423Z,102684.06
2023-02-26T19:53:59.795Z,102684.22
2023-02-26T19:56:28.469Z,102694.19
2023-02-26T19:58:56.814Z,102691.03
2023-02-26T20:01:25.495Z,102676.19
2023-02-26T20:03:55.531Z,102698.94
2023-02-26T20:06:24.101Z,102695.44
2023-02-26T20:08:52.443Z,102693.53
2023-02-26T20:11:21.153Z,102696.13
2023-02-26T20:13:49.492Z,102685.22
2023-02-26T20:16:17.916Z,102703.25
2023-02-26T20:18:46.860Z,102712.13
2023-02-26T20:21:16.607Z,102707.16
2023-02-26T20:23:45.191Z,102704.22
2023-02-26T20:26:16.517Z,102694.81
2023-02-26T20:28:45.363Z,102722.00
2023-02-26T20:31:14.393Z,102717.69
2023-02-26T20:33:42.871Z,102734.25
2023-02-26T20:36:11.911Z,102723.75
2023-02-26T20:38:43.146Z,102725.38
2023-02-26T20:41:11.617Z,102734.25
2023-02-26T20:43:39.957Z,102735.94
2023-02-26T20:46:08.622Z,102733.47
2023-02-26T20:48:41.634Z,102731.47
2023-02-26T20:51:12.080Z,102736.06
2023-02-26T20:53:42.613Z,102743.06
2023-02-26T20:56:10.927Z,102744.19
2023-02-26T20:58:41.525Z,102747.47
2023-02-26T21:01:09.709Z,102747.69
2023-02-26T21:03:38.057Z,102746.59
2023-02-26T21:06:08.524Z,102744.66
2023-02-26T21:08:36.957Z,102732.97
2023-02-26T21:11:08.108Z,102749.00
2023-02-26T21:13:36.634Z,102748.16
2023-02-26T21:16:05.299Z,102743.88
2023-02-26T21:18:34.722Z,102753.69
2023-02-26T21:21:05.043Z,102751.38
2023-02-26T21:23:33.713Z,102752.16
2023-02-26T21:26:02.018Z,102751.88
2023-02-26T21:28:32.034Z,102756.59
2023-02-26T21:31:00.486Z,102756.75
2023-02-26T21:33:28.885Z,102762.13
2023-02-26T21:35:57.311Z,102763.88
2023-02-26T21:38:25.710Z,102775.41
2023-02-26T21:40:54.445Z,102765.03
2023-02-26T21:43:22.754Z,102767.69
2023-02-26T21:45:52.526Z,102770.63
2023-02-26T21:48:20.924Z,102768.72
2023-02-26T21:50:50.461Z,102773.28
2023-02-26T21:53:18.948Z,102779.94
2023-02-26T21:55:47.277Z,102769.06
2023-02-26T21:58:15.892Z,102770.84
2023-02-26T22:00:44.242Z,102770.75
2023-02-26T22:03:13.949Z,102777.75
2023-02-26T22:05:42.637Z,102772.50
2023-02-26T22:08:11.435Z,102768.50
2023-02-26T22:10:39.815Z,102670.16
2023-02-26T22:13:08.123Z,102671.84
2023-02-26T22:15:36.452Z,102755.47
2023-02-26T22:18:05.534Z,102774.72
2023-02-26T22:20:35.259Z,102776.09
2023-02-26T22:23:04.560Z,102777.00
2023-02-26T22:25:33.168Z,102769.81
2023-02-26T22:28:01.555Z,102764.59
2023-02-26T22:30:30.078Z,102754.56
2023-02-26T22:32:58.472Z,102778.00
2023-02-26T22:35:26.799Z,102769.78
2023-02-26T22:37:56.547Z,102768.81
2023-02-26T22:40:26.261Z,102772.41
2023-02-26T22:42:54.621Z,102600.91
2023-02-26T22:45:22.985Z,102767.16
2023-02-26T22:47:51.438Z,102762.91
2023-02-26T22:50:20.178Z,102772.72
2023-02-26T22:52:49.314Z,102770.72
2023-02-26T22:55:19.463Z,102767.88
2023-02-26T22:57:47.828Z,102775.06
2023-02-26T23:00:19.892Z,102777.75
2023-02-26T23:02:49.521Z,102782.75
2023-02-26T23:05:19.543Z,102784.94
2023-02-26T23:07:48.875Z,102777.75
2023-02-26T23:10:21.437Z,102782.06
2023-02-26T23:12:50.200Z,102779.38
2023-02-26T23:15:18.972Z,102777.53
2023-02-26T23:17:47.666Z,102777.75
2023-02-26T23:20:16.952Z,102785.88
2023-02-26T23:22:45.817Z,102783.94
2023-02-26T23:25:14.369Z,102789.06
2023-02-26T23:27:44.188Z,102781.91
2023-02-26T23:30:14.180Z,102789.97
2023-02-26T23:32:42.684Z,102778.44
2023-02-26T23:35:11.567Z,102795.53
2023-02-26T23:37:39.973Z,102757.97
2023-02-26T23:40:14.550Z,102794.03
2023-02-26T23:42:44.477Z,102803.31
2023-02-26T23:45:13.586Z,102793.56
2023-02-26T23:47:41.981Z,102791.84
2023-02-26T23:50:12.322Z,102793.41
2023-02-26T23:52:40.914Z,102807.59
2023-02-26T23:55:10.624Z,102807.59
2023-02-26T23:57:39.235Z,102789.50
